createdAt,value
2019-03-26T00:01:42.640Z,102613.95
2019-03-26T00:04:12.634Z,102601.31
2019-03-26T00:06:42.597Z,102599.41
2019-03-26T00:09:12.574Z,102602.66
2019-03-26T00:11:42.521Z,102604.56
2019-03-26T00:14:12.523Z,102601.73
2019-03-26T00:16:42.462Z,102602.68
2019-03-26T00:19:12.455Z,102608.23
2019-03-26T00:21:42.404Z,102613.00
2019-03-26T00:24:12.360Z,102602.13
2019-03-26T00:26:42.331Z,102606.31
2019-03-26T00:29:12.317Z,102613.00
2019-03-26T00:31:42.257Z,102614.43
2019-03-26T00:34:19.119Z,102622.95
2019-03-26T00:36:42.199Z,102616.17
2019-03-26T00:39:12.160Z,102611.11
2019-03-26T00:41:42.124Z,102608.55
2019-03-26T00:44:12.106Z,102605.28
2019-03-26T00:46:42.099Z,102602.33
2019-03-26T00:49:12.039Z,102595.04
2019-03-26T00:51:41.967Z,102597.73
2019-03-26T00:54:11.943Z,102594.79
2019-03-26T00:56:41.919Z,102596.59
2019-03-26T00:59:11.902Z,102593.51
2019-03-26T01:01:41.902Z,102599.64
2019-03-26T01:04:11.860Z,102600.98
2019-03-26T01:06:41.857Z,102598.98
2019-03-26T01:09:11.815Z,102596.07
2019-03-26T01:11:41.793Z,102595.12
2019-03-26T01:14:11.744Z,102599.24
2019-03-26T01:16:41.706Z,102603.11
2019-03-26T01:19:11.677Z,102599.72
2019-03-26T01:21:41.662Z,102593.12
2019-03-26T01:24:11.656Z,102595.48
2019-03-26T01:26:41.615Z,102595.34
2019-03-26T01:29:11.557Z,102595.89
2019-03-26T01:31:41.553Z,102599.64
2019-03-26T01:34:11.522Z,102594.32
2019-03-26T01:36:41.500Z,102599.86
2019-03-26T01:39:11.464Z,102603.44
2019-03-26T01:41:41.430Z,102606.61
2019-03-26T01:44:11.371Z,102604.97
2019-03-26T01:46:41.343Z,102616.93
2019-03-26T01:49:11.303Z,102613.21
2019-03-26T01:51:41.275Z,102612.59
2019-03-26T01:54:11.258Z,102607.73
2019-03-26T01:56:41.223Z,102606.54
2019-03-26T01:59:11.204Z,102598.84
2019-03-26T02:01:41.191Z,102598.59
2019-03-26T02:04:11.158Z,102603.29
2019-03-26T02:06:41.118Z,102609.63
2019-03-26T02:09:11.086Z,102603.52
2019-03-26T02:11:41.045Z,102603.77
2019-03-26T02:14:11.008Z,102617.14
2019-03-26T02:16:40.975Z,102613.16
2019-03-26T02:19:10.972Z,102606.67
2019-03-26T02:21:40.908Z,102603.64
2019-03-26T02:24:10.882Z,102602.34
2019-03-26T02:26:40.853Z,102606.94
2019-03-26T02:29:10.844Z,102602.13
2019-03-26T02:31:40.802Z,102602.19
2019-03-26T02:34:10.766Z,102607.05
2019-03-26T02:36:40.745Z,102611.63
2019-03-26T02:39:10.756Z,102600.38
2019-03-26T02:41:40.710Z,102593.23
2019-03-26T02:44:10.678Z,102594.40
2019-03-26T02:46:40.663Z,102596.63
2019-03-26T02:49:10.614Z,102598.30
2019-03-26T02:51:40.595Z,102598.85
2019-03-26T02:54:10.557Z,102595.06
2019-03-26T02:56:40.546Z,102605.53
2019-03-26T02:59:10.520Z,102606.59
2019-03-26T03:01:40.521Z,102603.41
2019-03-26T03:04:10.533Z,102606.59
2019-03-26T03:06:40.493Z,102606.66
2019-03-26T03:09:10.455Z,102606.94
2019-03-26T03:11:40.415Z,102604.24
2019-03-26T03:14:10.386Z,102603.48
2019-03-26T03:16:40.397Z,102597.61
2019-03-26T03:19:10.361Z,102587.44
2019-03-26T03:21:40.322Z,102590.53
2019-03-26T03:24:10.302Z,102599.97
2019-03-26T03:26:40.268Z,102598.63
2019-03-26T03:29:10.274Z,102592.28
2019-03-26T03:31:40.228Z,102591.14
2019-03-26T03:34:10.251Z,102593.91
2019-03-26T03:36:40.153Z,102598.98
2019-03-26T03:39:10.097Z,102609.35
2019-03-26T03:41:40.074Z,102603.70
2019-03-26T03:44:10.016Z,102607.27
2019-03-26T03:46:40.659Z,102600.84
2019-03-26T03:49:10.624Z,102602.87
2019-03-26T03:51:40.601Z,102594.03
2019-03-26T03:54:10.582Z,102602.34
2019-03-26T03:56:41.329Z,102599.69
2019-03-26T03:59:11.355Z,102595.78
2019-03-26T04:01:41.376Z,102589.88
2019-03-26T04:04:11.323Z,102603.32
2019-03-26T04:06:41.301Z,102598.61
2019-03-26T04:09:11.303Z,102600.36
2019-03-26T04:11:41.281Z,102600.12
2019-03-26T04:14:11.232Z,102603.84
2019-03-26T04:16:41.213Z,102608.22
2019-03-26T04:19:11.183Z,102609.20
2019-03-26T04:21:41.127Z,102603.59
2019-03-26T04:24:11.099Z,102602.52
2019-03-26T04:26:41.101Z,102597.46
2019-03-26T04:29:11.016Z,102588.44
2019-03-26T04:31:40.984Z,102589.98
2019-03-26T04:34:10.951Z,102584.87
2019-03-26T04:36:40.910Z,102594.90
2019-03-26T04:39:10.874Z,102600.69
2019-03-26T04:41:40.856Z,102594.23
2019-03-26T04:44:10.801Z,102595.17
2019-03-26T04:46:40.788Z,102596.11
2019-03-26T04:49:10.750Z,102600.70
2019-03-26T04:51:40.739Z,102601.41
2019-03-26T04:54:10.710Z,102601.88
2019-03-26T04:56:40.673Z,102603.70
2019-03-26T04:59:10.692Z,102605.17
2019-03-26T05:01:40.722Z,102601.50
2019-03-26T05:04:10.682Z,102600.63
2019-03-26T05:06:40.624Z,102592.95
2019-03-26T05:09:10.611Z,102600.42
2019-03-26T05:11:40.574Z,102600.25
2019-03-26T05:14:10.552Z,102602.64
2019-03-26T05:16:40.527Z,102604.98
2019-03-26T05:19:10.496Z,102611.95
2019-03-26T05:21:40.485Z,102613.84
2019-03-26T05:24:10.478Z,102612.95
2019-03-26T05:26:40.431Z,102621.52
2019-03-26T05:29:10.474Z,102622.32
2019-03-26T05:31:40.460Z,102619.90
2019-03-26T05:34:10.471Z,102624.51
2019-03-26T05:36:50.602Z,102620.00
2019-03-26T05:39:10.401Z,102617.56
2019-03-26T05:41:40.414Z,102625.48
2019-03-26T05:44:10.414Z,102625.82
2019-03-26T05:46:40.380Z,102632.49
2019-03-26T05:49:10.370Z,102631.08
2019-03-26T05:51:40.345Z,102630.13
2019-03-26T05:54:10.351Z,102632.76
2019-03-26T05:56:40.311Z,102635.69
2019-03-26T05:59:10.442Z,102624.91
2019-03-26T06:01:40.421Z,102623.98
2019-03-26T06:04:10.464Z,102625.19
2019-03-26T06:06:41.542Z,102625.34
2019-03-26T06:09:11.903Z,102629.97
2019-03-26T06:11:41.873Z,102633.91
2019-03-26T06:14:11.872Z,102630.60
2019-03-26T06:16:41.849Z,102638.08
2019-03-26T06:19:11.820Z,102641.28
2019-03-26T06:21:41.786Z,102643.98
2019-03-26T06:24:11.763Z,102639.86
2019-03-26T06:26:41.754Z,102644.13
2019-03-26T06:29:11.859Z,102641.28
2019-03-26T06:31:41.839Z,102645.39
2019-03-26T06:34:11.804Z,102643.23
2019-03-26T06:36:41.763Z,102643.41
2019-03-26T06:39:11.746Z,102644.85
2019-03-26T06:41:41.710Z,102646.00
2019-03-26T06:44:11.696Z,102646.70
2019-03-26T06:46:41.648Z,102642.54
2019-03-26T06:49:11.610Z,102643.31
2019-03-26T06:51:41.599Z,102635.94
2019-03-26T06:54:11.569Z,102635.40
2019-03-26T06:56:41.541Z,102637.23
2019-03-26T06:59:11.585Z,102641.41
2019-03-26T07:01:41.594Z,102642.38
2019-03-26T07:04:11.708Z,102648.09
2019-03-26T07:06:41.733Z,102648.33
2019-03-26T07:09:11.857Z,102649.20
2019-03-26T07:11:41.851Z,102640.80
2019-03-26T07:14:11.890Z,102625.06
2019-03-26T07:16:41.853Z,102630.83
2019-03-26T07:19:11.827Z,102639.06
2019-03-26T07:21:49.549Z,102639.28
2019-03-26T07:24:11.802Z,102638.99
2019-03-26T07:26:41.797Z,102642.33
2019-03-26T07:29:11.828Z,102641.13
2019-03-26T07:31:41.792Z,102643.41
2019-03-26T07:34:11.789Z,102649.88
2019-03-26T07:36:41.751Z,102647.52
2019-03-26T07:39:11.740Z,102643.59
2019-03-26T07:41:41.719Z,102648.70
2019-03-26T07:44:11.788Z,102648.48
2019-03-26T07:46:41.717Z,102649.95
2019-03-26T07:49:11.659Z,102651.38
2019-03-26T07:51:41.628Z,102654.53
2019-03-26T07:54:11.621Z,102651.25
2019-03-26T07:56:41.595Z,102641.08
2019-03-26T07:59:11.565Z,102638.31
2019-03-26T08:01:41.631Z,102650.71
2019-03-26T08:04:12.692Z,102646.11
2019-03-26T08:06:41.650Z,102654.38
2019-03-26T08:09:11.670Z,102650.72
2019-03-26T08:11:44.907Z,102649.02
2019-03-26T08:14:24.785Z,102646.85
2019-03-26T08:16:58.171Z,102646.28
2019-03-26T08:19:28.512Z,102645.75
2019-03-26T08:21:59.019Z,102648.77
2019-03-26T08:24:30.290Z,102647.57
2019-03-26T08:27:00.994Z,102644.33
2019-03-26T08:29:31.172Z,102644.83
2019-03-26T08:32:01.376Z,102649.45
2019-03-26T08:34:31.847Z,102653.05
2019-03-26T08:37:02.399Z,102652.50
2019-03-26T08:39:33.640Z,102653.36
2019-03-26T08:42:04.208Z,102649.84
2019-03-26T08:44:34.875Z,102646.58
2019-03-26T08:47:05.065Z,102650.47
2019-03-26T08:49:35.443Z,102646.38
2019-03-26T08:52:05.985Z,102641.47
2019-03-26T08:54:36.211Z,102647.58
2019-03-26T08:57:06.616Z,102644.86
2019-03-26T08:59:37.326Z,102647.69
2019-03-26T09:02:08.066Z,102652.36
2019-03-26T09:04:38.142Z,102660.91
2019-03-26T09:07:11.018Z,102661.72
2019-03-26T09:09:39.951Z,102669.66
2019-03-26T09:12:13.102Z,102665.58
2019-03-26T09:14:43.397Z,102671.75
2019-03-26T09:17:13.452Z,102677.95
2019-03-26T09:19:54.868Z,102692.68
2019-03-26T09:22:27.951Z,102684.42
2019-03-26T09:25:01.197Z,102692.59
2019-03-26T09:27:34.250Z,102691.98
2019-03-26T09:30:06.550Z,102682.01
2019-03-26T09:32:36.718Z,102681.21
2019-03-26T09:35:10.468Z,102693.07
2019-03-26T09:37:47.795Z,102682.23
2019-03-26T09:40:18.371Z,102688.55
2019-03-26T09:42:55.460Z,102687.68
2019-03-26T09:45:26.439Z,102684.97
2019-03-26T09:47:56.784Z,102684.30
2019-03-26T09:50:37.384Z,102685.45
2019-03-26T09:53:05.466Z,102685.17
2019-03-26T09:55:35.595Z,102690.30
2019-03-26T09:58:06.021Z,102689.61
2019-03-26T10:00:36.338Z,102683.32
2019-03-26T10:03:09.567Z,102694.52
2019-03-26T10:05:43.938Z,102697.14
2019-03-26T10:08:17.631Z,102697.80
2019-03-26T10:10:45.447Z,102692.78
2019-03-26T10:13:15.489Z,102698.05
2019-03-26T10:15:50.560Z,102698.72
2019-03-26T10:18:18.584Z,102690.09
2019-03-26T10:20:50.928Z,102689.03
2019-03-26T10:23:21.251Z,102689.61
2019-03-26T10:25:51.614Z,102685.89
2019-03-26T10:28:30.183Z,102679.79
2019-03-26T10:31:07.538Z,102681.92
2019-03-26T10:33:38.036Z,102678.31
2019-03-26T10:36:11.586Z,102674.63
2019-03-26T10:38:41.772Z,102675.06
2019-03-26T10:41:12.351Z,102667.56
2019-03-26T10:43:44.567Z,102669.86
2019-03-26T10:46:15.082Z,102666.53
2019-03-26T10:48:48.093Z,102669.53
2019-03-26T10:51:21.919Z,102670.09
2019-03-26T10:54:00.641Z,102660.94
2019-03-26T10:56:32.446Z,102663.59
2019-03-26T10:59:04.145Z,102669.05
2019-03-26T11:01:32.386Z,102667.82
2019-03-26T11:04:02.601Z,102658.27
2019-03-26T11:06:38.725Z,102655.39
2019-03-26T11:09:23.114Z,102658.69
2019-03-26T11:11:46.099Z,102655.14
2019-03-26T11:14:19.443Z,102647.90
2019-03-26T11:16:49.736Z,102654.88
2019-03-26T11:19:22.533Z,102657.62
2019-03-26T11:21:55.431Z,102659.77
2019-03-26T11:24:30.527Z,102665.89
2019-03-26T11:27:01.393Z,102663.28
2019-03-26T11:29:31.747Z,102662.20
2019-03-26T11:32:02.122Z,102657.30
2019-03-26T11:34:35.280Z,102661.98
2019-03-26T11:37:08.669Z,102654.36
2019-03-26T11:39:38.797Z,102649.34
2019-03-26T11:42:09.418Z,102651.86
2019-03-26T11:44:40.177Z,102653.05
2019-03-26T11:47:15.153Z,102657.73
2019-03-26T11:49:45.704Z,102651.48
2019-03-26T11:52:16.448Z,102652.95
2019-03-26T11:54:46.724Z,102648.72
2019-03-26T11:57:19.764Z,102651.59
2019-03-26T11:59:50.291Z,102652.16
2019-03-26T12:02:23.250Z,102647.80
2019-03-26T12:04:55.609Z,102641.95
2019-03-26T12:07:23.801Z,102645.21
2019-03-26T12:09:54.180Z,102645.27
2019-03-26T12:12:30.698Z,102647.16
2019-03-26T12:15:01.590Z,102638.08
2019-03-26T12:17:31.714Z,102635.22
2019-03-26T12:20:05.025Z,102628.56
2019-03-26T12:22:38.612Z,102634.50
2019-03-26T12:25:09.171Z,102633.87
2019-03-26T12:27:42.006Z,102635.91
2019-03-26T12:30:15.090Z,102632.31
2019-03-26T12:32:48.360Z,102626.41
2019-03-26T12:35:31.762Z,102629.50
2019-03-26T12:38:02.514Z,102632.91
2019-03-26T12:40:32.594Z,102629.06
2019-03-26T12:43:08.072Z,102627.64
2019-03-26T12:45:38.397Z,102628.56
2019-03-26T12:48:08.696Z,102627.47
2019-03-26T12:50:38.847Z,102627.09
2019-03-26T12:53:12.845Z,102627.06
2019-03-26T12:55:41.837Z,102631.09
2019-03-26T12:58:12.257Z,102626.24
2019-03-26T13:00:42.543Z,102618.09
2019-03-26T13:03:15.657Z,102617.40
2019-03-26T13:05:46.393Z,102622.80
2019-03-26T13:08:24.481Z,102618.01
2019-03-26T13:10:57.292Z,102625.52
2019-03-26T13:13:27.580Z,102622.32
2019-03-26T13:15:57.657Z,102614.27
2019-03-26T13:18:31.128Z,102616.41
2019-03-26T13:21:01.444Z,102610.25
2019-03-26T13:23:32.464Z,102606.17
2019-03-26T13:26:06.145Z,102607.19
2019-03-26T13:28:36.817Z,102610.59
2019-03-26T13:31:06.966Z,102611.78
2019-03-26T13:33:37.246Z,102606.36
2019-03-26T13:36:07.646Z,102609.31
2019-03-26T13:38:38.268Z,102606.95
2019-03-26T13:41:11.364Z,102605.48
2019-03-26T13:43:41.724Z,102604.80
2019-03-26T13:46:17.922Z,102602.28
2019-03-26T13:48:51.863Z,102602.67
2019-03-26T13:51:22.017Z,102602.77
2019-03-26T13:53:54.720Z,102595.94
2019-03-26T13:56:32.558Z,102600.74
2019-03-26T13:59:08.292Z,102598.36
2019-03-26T14:01:38.657Z,102600.01
2019-03-26T14:04:08.716Z,102594.52
2019-03-26T14:06:39.000Z,102591.73
2019-03-26T14:09:17.453Z,102590.81
2019-03-26T14:11:47.467Z,102583.42
2019-03-26T14:14:19.761Z,102587.02
2019-03-26T14:16:49.772Z,102582.73
2019-03-26T14:19:26.185Z,102582.61
2019-03-26T14:21:58.630Z,102581.88
2019-03-26T14:24:29.209Z,102585.44
2019-03-26T14:26:59.211Z,102578.18
2019-03-26T14:29:33.161Z,102574.80
2019-03-26T14:32:20.259Z,102577.89
2019-03-26T14:34:54.902Z,102571.48
2019-03-26T14:37:26.568Z,102573.44
2019-03-26T14:39:58.541Z,102572.16
2019-03-26T14:42:31.911Z,102569.88
2019-03-26T14:45:07.917Z,102571.22
2019-03-26T14:47:38.495Z,102571.47
2019-03-26T14:50:09.072Z,102575.14
2019-03-26T14:52:43.020Z,102573.13
2019-03-26T14:55:15.706Z,102573.45
2019-03-26T14:57:46.285Z,102566.75
2019-03-26T15:00:19.017Z,102571.95
2019-03-26T15:02:52.160Z,102577.20
2019-03-26T15:05:25.533Z,102582.53
2019-03-26T15:07:58.442Z,102576.99
2019-03-26T15:10:28.533Z,102578.18
2019-03-26T15:13:01.650Z,102584.39
2019-03-26T15:15:36.578Z,102579.52
2019-03-26T15:18:06.916Z,102574.14
2019-03-26T15:20:40.402Z,102577.12
2019-03-26T15:23:13.571Z,102578.58
2019-03-26T15:25:45.505Z,102573.16
2019-03-26T15:28:14.237Z,102568.23
2019-03-26T15:30:48.205Z,102565.17
2019-03-26T15:33:20.690Z,102568.18
2019-03-26T15:35:51.208Z,102563.23
2019-03-26T15:38:21.400Z,102562.17
2019-03-26T15:40:59.467Z,102561.23
2019-03-26T15:43:29.404Z,102565.61
2019-03-26T15:45:59.361Z,102559.43
2019-03-26T15:48:29.350Z,102560.26
2019-03-26T15:50:59.310Z,102565.20
2019-03-26T15:53:29.318Z,102556.63
2019-03-26T15:55:59.250Z,102564.64
2019-03-26T15:58:29.234Z,102556.92
2019-03-26T16:00:59.198Z,102561.36
2019-03-26T16:03:29.219Z,102555.92
2019-03-26T16:05:59.203Z,102562.88
2019-03-26T16:08:29.157Z,102558.83
2019-03-26T16:10:59.111Z,102562.56
2019-03-26T16:13:29.077Z,102561.84
2019-03-26T16:16:00.669Z,102561.77
2019-03-26T16:18:32.392Z,102566.00
2019-03-26T16:21:03.964Z,102567.07
2019-03-26T16:23:39.007Z,102567.76
2019-03-26T16:26:11.829Z,102577.65
2019-03-26T16:28:42.366Z,102567.84
2019-03-26T16:31:13.879Z,102572.42
2019-03-26T16:33:45.228Z,102564.18
2019-03-26T16:36:19.775Z,102564.31
2019-03-26T16:38:51.164Z,102558.44
2019-03-26T16:41:22.920Z,102557.41
2019-03-26T16:43:52.808Z,102557.19
2019-03-26T16:46:22.752Z,102559.05
2019-03-26T16:48:52.719Z,102553.83
2019-03-26T16:51:22.821Z,102560.16
2019-03-26T16:53:52.905Z,102557.63
2019-03-26T16:56:22.902Z,102551.84
2019-03-26T16:58:52.863Z,102556.39
2019-03-26T17:01:22.860Z,102557.49
2019-03-26T17:03:52.806Z,102560.00
2019-03-26T17:06:22.767Z,102562.64
2019-03-26T17:08:52.744Z,102557.10
2019-03-26T17:11:22.696Z,102554.78
2019-03-26T17:13:52.670Z,102554.77
2019-03-26T17:16:22.628Z,102560.52
2019-03-26T17:18:52.631Z,102559.14
2019-03-26T17:21:22.602Z,102559.64
2019-03-26T17:23:52.670Z,102562.28
2019-03-26T17:26:22.793Z,102563.08
2019-03-26T17:28:52.881Z,102559.84
2019-03-26T17:31:22.958Z,102568.95
2019-03-26T17:33:52.835Z,102565.45
2019-03-26T17:36:22.868Z,102562.66
2019-03-26T17:38:52.820Z,102574.77
2019-03-26T17:41:22.812Z,102569.64
2019-03-26T17:43:52.784Z,102577.87
2019-03-26T17:46:22.732Z,102572.33
2019-03-26T17:48:52.822Z,102567.39
2019-03-26T17:51:22.832Z,102574.86
2019-03-26T17:53:52.828Z,102571.67
2019-03-26T17:56:22.901Z,102568.96
2019-03-26T17:58:52.913Z,102572.05
2019-03-26T18:01:22.933Z,102567.30
2019-03-26T18:03:52.927Z,102577.37
2019-03-26T18:06:22.902Z,102572.43
2019-03-26T18:08:52.879Z,102581.73
2019-03-26T18:11:22.852Z,102580.47
2019-03-26T18:13:52.843Z,102583.75
2019-03-26T18:16:22.797Z,102589.08
2019-03-26T18:18:55.020Z,102592.06
2019-03-26T18:21:22.888Z,102593.72
2019-03-26T18:23:52.856Z,102593.51
2019-03-26T18:26:22.809Z,102604.52
2019-03-26T18:28:55.327Z,102609.46
2019-03-26T18:31:22.792Z,102611.30
2019-03-26T18:33:52.762Z,102609.19
2019-03-26T18:36:22.758Z,102615.17
2019-03-26T18:38:52.706Z,102610.72
2019-03-26T18:41:22.699Z,102609.84
2019-03-26T18:43:52.719Z,102614.00
2019-03-26T18:46:22.675Z,102614.56
2019-03-26T18:48:52.654Z,102609.97
2019-03-26T18:51:22.625Z,102621.33
2019-03-26T18:53:53.981Z,102618.01
2019-03-26T18:56:23.950Z,102618.09
2019-03-26T18:58:53.937Z,102619.31
2019-03-26T19:01:23.972Z,102623.47
2019-03-26T19:03:53.924Z,102636.64
2019-03-26T19:06:23.912Z,102645.25
2019-03-26T19:08:53.889Z,102648.31
2019-03-26T19:11:23.839Z,102647.48
2019-03-26T19:13:53.834Z,102651.02
2019-03-26T19:16:23.795Z,102656.95
2019-03-26T19:18:53.755Z,102653.00
2019-03-26T19:21:23.741Z,102654.52
2019-03-26T19:24:03.373Z,102658.67
2019-03-26T19:26:23.685Z,102655.73
2019-03-26T19:28:53.635Z,102659.16
2019-03-26T19:31:23.665Z,102652.34
2019-03-26T19:33:53.624Z,102657.23
2019-03-26T19:36:23.618Z,102654.25
2019-03-26T19:38:53.562Z,102650.52
2019-03-26T19:41:23.521Z,102653.55
2019-03-26T19:43:53.523Z,102657.13
2019-03-26T19:46:23.492Z,102665.31
2019-03-26T19:48:53.509Z,102666.12
2019-03-26T19:51:23.478Z,102671.06
2019-03-26T19:53:53.511Z,102670.19
2019-03-26T19:56:23.496Z,102675.13
2019-03-26T19:58:53.533Z,102679.47
2019-03-26T20:01:23.534Z,102676.92
2019-03-26T20:03:53.514Z,102674.22
2019-03-26T20:06:23.526Z,102668.22
2019-03-26T20:08:53.509Z,102676.34
2019-03-26T20:11:23.437Z,102681.04
2019-03-26T20:13:53.516Z,102677.70
2019-03-26T20:16:23.459Z,102687.41
2019-03-26T20:18:58.288Z,102687.57
2019-03-26T20:21:28.237Z,102685.15
2019-03-26T20:24:01.145Z,102679.50
2019-03-26T20:26:31.139Z,102684.04
2019-03-26T20:29:01.070Z,102678.83
2019-03-26T20:31:31.046Z,102686.71
2019-03-26T20:34:01.016Z,102693.35
2019-03-26T20:36:30.991Z,102701.95
2019-03-26T20:39:01.036Z,102708.39
2019-03-26T20:41:31.026Z,102707.28
2019-03-26T20:44:00.999Z,102691.32
2019-03-26T20:46:30.954Z,102698.69
2019-03-26T20:49:00.967Z,102699.64
2019-03-26T20:51:30.928Z,102702.34
2019-03-26T20:54:00.945Z,102703.89
2019-03-26T20:56:30.969Z,102704.13
2019-03-26T20:59:00.948Z,102712.80
2019-03-26T21:01:30.899Z,102710.68
2019-03-26T21:04:00.889Z,102702.15
2019-03-26T21:06:30.826Z,102708.31
2019-03-26T21:09:00.837Z,102705.64
2019-03-26T21:11:30.842Z,102706.83
2019-03-26T21:14:00.827Z,102701.11
2019-03-26T21:16:30.773Z,102704.87
2019-03-26T21:19:00.748Z,102698.99
2019-03-26T21:21:30.709Z,102695.02
2019-03-26T21:24:00.706Z,102696.66
2019-03-26T21:26:30.658Z,102695.14
2019-03-26T21:29:00.607Z,102693.03
2019-03-26T21:31:30.571Z,102687.70
2019-03-26T21:34:00.940Z,102686.34
2019-03-26T21:36:30.968Z,102687.70
2019-03-26T21:39:00.919Z,102686.45
2019-03-26T21:41:30.899Z,102687.67
2019-03-26T21:44:04.465Z,102682.13
2019-03-26T21:46:30.894Z,102697.08
2019-03-26T21:49:00.840Z,102686.10
2019-03-26T21:51:30.810Z,102683.92
2019-03-26T21:54:00.775Z,102680.99
2019-03-26T21:56:30.770Z,102689.92
2019-03-26T21:59:00.786Z,102692.38
2019-03-26T22:01:30.765Z,102690.70
2019-03-26T22:04:00.728Z,102694.48
2019-03-26T22:06:30.712Z,102695.12
2019-03-26T22:09:00.789Z,102694.31
2019-03-26T22:11:30.786Z,102701.72
2019-03-26T22:14:00.790Z,102700.51
2019-03-26T22:16:30.765Z,102705.77
2019-03-26T22:19:00.750Z,102701.95
2019-03-26T22:21:30.711Z,102717.37
2019-03-26T22:24:00.676Z,102713.72
2019-03-26T22:26:30.739Z,102709.97
2019-03-26T22:29:00.757Z,102711.72
2019-03-26T22:31:30.826Z,102719.82
2019-03-26T22:34:00.810Z,102713.32
2019-03-26T22:36:30.761Z,102721.16
2019-03-26T22:39:01.269Z,102719.98
2019-03-26T22:41:31.320Z,102721.64
2019-03-26T22:44:01.306Z,102726.57
2019-03-26T22:46:31.260Z,102718.25
2019-03-26T22:49:01.258Z,102711.23
2019-03-26T22:51:31.230Z,102711.23
2019-03-26T22:54:01.206Z,102716.17
2019-03-26T22:56:31.191Z,102717.12
2019-03-26T22:59:01.168Z,102721.09
2019-03-26T23:01:31.128Z,102720.33
2019-03-26T23:04:01.092Z,102720.11
2019-03-26T23:06:31.054Z,102717.55
2019-03-26T23:09:01.032Z,102718.90
2019-03-26T23:11:30.980Z,102718.82
2019-03-26T23:14:01.001Z,102724.36
2019-03-26T23:16:30.951Z,102731.02
2019-03-26T23:19:00.920Z,102729.41
2019-03-26T23:21:30.890Z,102731.42
2019-03-26T23:24:00.875Z,102731.56
2019-03-26T23:26:30.860Z,102734.86
2019-03-26T23:29:00.807Z,102736.80
2019-03-26T23:31:30.809Z,102737.31
2019-03-26T23:34:00.769Z,102733.30
2019-03-26T23:36:30.735Z,102734.81
2019-03-26T23:39:00.673Z,102741.97
2019-03-26T23:41:30.651Z,102737.89
2019-03-26T23:44:00.609Z,102735.52
2019-03-26T23:46:30.585Z,102729.80
2019-03-26T23:49:00.538Z,102725.78
2019-03-26T23:51:30.499Z,102728.40
2019-03-26T23:54:00.459Z,102730.17
2019-03-26T23:56:30.441Z,102718.47
2019-03-26T23:59:00.388Z,102716.06
